Aviation Digital Data Service (ADDS)

Output produced by TAFs form (0006 UTC 07 March 2015)
found at http://aviationweather.gov/adds/tafs/
 
KELP 062339Z 0700/0724 06008KT P6SM SKC 
     FM070600 05006KT P6SM SKC